sensor_id;sensor_type;location;lat;lon;timestamp;P1;durP1;ratioP1;P2;durP2;ratioP2
15063;SDS011;7631;52.088;5.088;2023-04-24T00:00:16;1.70;;;0.63;;
15063;SDS011;7631;52.088;5.088;2023-04-24T00:02:42;1.40;;;0.50;;
15063;SDS011;7631;52.088;5.088;2023-04-24T00:05:12;0.60;;;0.50;;
15063;SDS011;7631;52.088;5.088;2023-04-24T00:07:38;1.23;;;0.60;;
15063;SDS011;7631;52.088;5.088;2023-04-24T00:10:07;0.70;;;0.70;;
15063;SDS011;7631;52.088;5.088;2023-04-24T00:12:33;0.83;;;0.50;;
15063;SDS011;7631;52.088;5.088;2023-04-24T00:14:58;1.77;;;0.70;;
15063;SDS011;7631;52.088;5.088;2023-04-24T00:17:24;2.00;;;0.60;;
15063;SDS011;7631;52.088;5.088;2023-04-24T00:19:49;0.50;;;0.50;;
15063;SDS011;7631;52.088;5.088;2023-04-24T00:22:16;0.83;;;0.53;;
15063;SDS011;7631;52.088;5.088;2023-04-24T00:24:41;1.00;;;0.67;;
15063;SDS011;7631;52.088;5.088;2023-04-24T00:27:06;0.73;;;0.60;;
15063;SDS011;7631;52.088;5.088;2023-04-24T00:29:32;1.20;;;0.67;;
15063;SDS011;7631;52.088;5.088;2023-04-24T00:31:57;0.60;;;0.60;;
15063;SDS011;7631;52.088;5.088;2023-04-24T00:34:22;0.63;;;0.50;;
15063;SDS011;7631;52.088;5.088;2023-04-24T00:36:47;0.40;;;0.40;;
15063;SDS011;7631;52.088;5.088;2023-04-24T00:39:15;1.07;;;0.70;;
15063;SDS011;7631;52.088;5.088;2023-04-24T00:41:40;0.73;;;0.60;;
15063;SDS011;7631;52.088;5.088;2023-04-24T00:44:06;0.77;;;0.50;;
15063;SDS011;7631;52.088;5.088;2023-04-24T00:46:32;0.67;;;0.50;;
15063;SDS011;7631;52.088;5.088;2023-04-24T00:48:57;1.13;;;0.70;;
15063;SDS011;7631;52.088;5.088;2023-04-24T00:51:23;0.70;;;0.70;;
15063;SDS011;7631;52.088;5.088;2023-04-24T00:53:49;0.87;;;0.70;;
15063;SDS011;7631;52.088;5.088;2023-04-24T00:56:15;1.23;;;0.60;;
15063;SDS011;7631;52.088;5.088;2023-04-24T00:58:41;1.90;;;0.60;;
15063;SDS011;7631;52.088;5.088;2023-04-24T01:01:07;1.23;;;0.73;;
15063;SDS011;7631;52.088;5.088;2023-04-24T01:03:33;1.33;;;0.63;;
15063;SDS011;7631;52.088;5.088;2023-04-24T01:05:58;0.70;;;0.60;;
15063;SDS011;7631;52.088;5.088;2023-04-24T01:08:23;1.00;;;0.60;;
15063;SDS011;7631;52.088;5.088;2023-04-24T01:10:49;0.63;;;0.60;;
15063;SDS011;7631;52.088;5.088;2023-04-24T01:13:15;0.90;;;0.70;;
15063;SDS011;7631;52.088;5.088;2023-04-24T01:15:41;0.70;;;0.60;;
15063;SDS011;7631;52.088;5.088;2023-04-24T01:18:06;0.80;;;0.60;;
15063;SDS011;7631;52.088;5.088;2023-04-24T01:20:31;0.87;;;0.70;;
15063;SDS011;7631;52.088;5.088;2023-04-24T01:22:57;0.90;;;0.80;;
15063;SDS011;7631;52.088;5.088;2023-04-24T01:25:23;0.60;;;0.60;;
15063;SDS011;7631;52.088;5.088;2023-04-24T01:27:48;1.33;;;0.90;;
15063;SDS011;7631;52.088;5.088;2023-04-24T01:30:14;0.90;;;0.70;;
15063;SDS011;7631;52.088;5.088;2023-04-24T01:32:39;0.80;;;0.80;;
15063;SDS011;7631;52.088;5.088;2023-04-24T01:35:05;1.10;;;0.90;;
15063;SDS011;7631;52.088;5.088;2023-04-24T01:37:31;1.23;;;0.80;;
15063;SDS011;7631;52.088;5.088;2023-04-24T01:39:57;0.60;;;0.60;;
15063;SDS011;7631;52.088;5.088;2023-04-24T01:42:22;1.23;;;0.77;;
15063;SDS011;7631;52.088;5.088;2023-04-24T01:44:48;1.40;;;0.90;;
15063;SDS011;7631;52.088;5.088;2023-04-24T01:47:13;1.27;;;0.80;;
15063;SDS011;7631;52.088;5.088;2023-04-24T01:49:38;0.73;;;0.73;;
15063;SDS011;7631;52.088;5.088;2023-04-24T01:52:03;1.00;;;0.90;;
15063;SDS011;7631;52.088;5.088;2023-04-24T01:54:29;0.80;;;0.80;;
15063;SDS011;7631;52.088;5.088;2023-04-24T01:56:54;1.23;;;0.90;;
15063;SDS011;7631;52.088;5.088;2023-04-24T01:59:20;1.20;;;1.10;;
15063;SDS011;7631;52.088;5.088;2023-04-24T02:01:45;1.00;;;0.90;;
15063;SDS011;7631;52.088;5.088;2023-04-24T02:04:10;0.80;;;0.77;;
15063;SDS011;7631;52.088;5.088;2023-04-24T02:06:36;1.63;;;0.90;;
15063;SDS011;7631;52.088;5.088;2023-04-24T02:09:02;0.97;;;0.97;;
15063;SDS011;7631;52.088;5.088;2023-04-24T02:11:28;1.37;;;1.13;;
15063;SDS011;7631;52.088;5.088;2023-04-24T02:13:54;2.07;;;0.97;;
15063;SDS011;7631;52.088;5.088;2023-04-24T02:16:19;1.20;;;1.10;;
15063;SDS011;7631;52.088;5.088;2023-04-24T02:18:44;1.00;;;0.93;;
15063;SDS011;7631;52.088;5.088;2023-04-24T02:21:10;1.27;;;0.80;;
15063;SDS011;7631;52.088;5.088;2023-04-24T02:23:35;2.10;;;1.07;;
15063;SDS011;7631;52.088;5.088;2023-04-24T02:26:00;1.23;;;1.13;;
15063;SDS011;7631;52.088;5.088;2023-04-24T02:28:26;1.17;;;0.90;;
15063;SDS011;7631;52.088;5.088;2023-04-24T02:30:51;1.27;;;1.00;;
15063;SDS011;7631;52.088;5.088;2023-04-24T02:33:17;0.87;;;0.83;;
15063;SDS011;7631;52.088;5.088;2023-04-24T02:35:42;0.90;;;0.80;;
15063;SDS011;7631;52.088;5.088;2023-04-24T02:38:07;1.03;;;0.97;;
15063;SDS011;7631;52.088;5.088;2023-04-24T02:40:32;1.63;;;1.00;;
15063;SDS011;7631;52.088;5.088;2023-04-24T02:42:58;1.00;;;0.90;;
15063;SDS011;7631;52.088;5.088;2023-04-24T02:45:23;0.87;;;0.80;;
15063;SDS011;7631;52.088;5.088;2023-04-24T02:47:48;1.10;;;0.93;;
15063;SDS011;7631;52.088;5.088;2023-04-24T02:50:13;1.00;;;0.90;;
15063;SDS011;7631;52.088;5.088;2023-04-24T02:52:38;2.43;;;1.10;;
15063;SDS011;7631;52.088;5.088;2023-04-24T02:55:04;1.57;;;1.00;;
15063;SDS011;7631;52.088;5.088;2023-04-24T02:57:30;0.77;;;0.77;;
15063;SDS011;7631;52.088;5.088;2023-04-24T02:59:56;1.30;;;0.90;;
15063;SDS011;7631;52.088;5.088;2023-04-24T03:02:21;1.30;;;1.00;;
15063;SDS011;7631;52.088;5.088;2023-04-24T03:04:46;1.17;;;1.00;;
15063;SDS011;7631;52.088;5.088;2023-04-24T03:07:13;1.30;;;1.20;;
15063;SDS011;7631;52.088;5.088;2023-04-24T03:09:39;0.80;;;0.80;;
15063;SDS011;7631;52.088;5.088;2023-04-24T03:12:04;1.10;;;1.00;;
15063;SDS011;7631;52.088;5.088;2023-04-24T03:14:29;1.17;;;1.07;;
15063;SDS011;7631;52.088;5.088;2023-04-24T03:16:56;1.50;;;1.03;;
15063;SDS011;7631;52.088;5.088;2023-04-24T03:19:21;1.17;;;1.07;;
15063;SDS011;7631;52.088;5.088;2023-04-24T03:21:46;1.40;;;1.20;;
15063;SDS011;7631;52.088;5.088;2023-04-24T03:24:12;1.20;;;0.97;;
15063;SDS011;7631;52.088;5.088;2023-04-24T03:26:37;1.03;;;0.93;;
15063;SDS011;7631;52.088;5.088;2023-04-24T03:29:02;0.90;;;0.90;;
15063;SDS011;7631;52.088;5.088;2023-04-24T03:31:27;1.00;;;0.90;;
15063;SDS011;7631;52.088;5.088;2023-04-24T03:33:52;1.30;;;1.00;;
15063;SDS011;7631;52.088;5.088;2023-04-24T03:36:17;0.87;;;0.87;;
15063;SDS011;7631;52.088;5.088;2023-04-24T03:38:44;1.10;;;1.00;;
15063;SDS011;7631;52.088;5.088;2023-04-24T03:41:10;1.50;;;1.00;;
15063;SDS011;7631;52.088;5.088;2023-04-24T03:43:35;1.30;;;1.20;;
15063;SDS011;7631;52.088;5.088;2023-04-24T03:46:00;1.17;;;1.00;;
15063;SDS011;7631;52.088;5.088;2023-04-24T03:48:26;1.00;;;0.90;;
15063;SDS011;7631;52.088;5.088;2023-04-24T03:50:51;1.20;;;1.10;;
15063;SDS011;7631;52.088;5.088;2023-04-24T03:53:16;1.10;;;1.00;;
15063;SDS011;7631;52.088;5.088;2023-04-24T03:55:41;1.53;;;1.00;;
15063;SDS011;7631;52.088;5.088;2023-04-24T03:58:07;1.20;;;1.10;;
15063;SDS011;7631;52.088;5.088;2023-04-24T04:00:32;0.93;;;0.87;;
15063;SDS011;7631;52.088;5.088;2023-04-24T04:02:58;1.10;;;1.00;;
15063;SDS011;7631;52.088;5.088;2023-04-24T04:05:23;0.70;;;0.70;;
15063;SDS011;7631;52.088;5.088;2023-04-24T04:07:48;1.13;;;1.03;;
15063;SDS011;7631;52.088;5.088;2023-04-24T04:10:13;1.10;;;1.00;;
15063;SDS011;7631;52.088;5.088;2023-04-24T04:12:39;1.10;;;1.00;;
15063;SDS011;7631;52.088;5.088;2023-04-24T04:15:04;1.33;;;1.20;;
15063;SDS011;7631;52.088;5.088;2023-04-24T04:17:30;1.60;;;1.20;;
15063;SDS011;7631;52.088;5.088;2023-04-24T04:19:56;1.20;;;0.90;;
15063;SDS011;7631;52.088;5.088;2023-04-24T04:22:21;1.30;;;1.00;;
15063;SDS011;7631;52.088;5.088;2023-04-24T04:24:46;1.33;;;1.00;;
15063;SDS011;7631;52.088;5.088;2023-04-24T04:27:12;2.23;;;1.00;;
15063;SDS011;7631;52.088;5.088;2023-04-24T04:29:37;1.77;;;1.10;;
15063;SDS011;7631;52.088;5.088;2023-04-24T04:32:03;1.60;;;1.20;;
15063;SDS011;7631;52.088;5.088;2023-04-24T04:34:28;1.80;;;1.30;;
15063;SDS011;7631;52.088;5.088;2023-04-24T04:36:54;1.20;;;1.10;;
15063;SDS011;7631;52.088;5.088;2023-04-24T04:39:20;1.10;;;0.97;;
15063;SDS011;7631;52.088;5.088;2023-04-24T04:41:45;1.60;;;1.20;;
15063;SDS011;7631;52.088;5.088;2023-04-24T04:44:13;1.03;;;0.93;;
15063;SDS011;7631;52.088;5.088;2023-04-24T04:46:39;1.27;;;1.17;;
15063;SDS011;7631;52.088;5.088;2023-04-24T04:49:04;1.30;;;1.17;;
15063;SDS011;7631;52.088;5.088;2023-04-24T04:51:30;1.53;;;1.40;;
15063;SDS011;7631;52.088;5.088;2023-04-24T04:53:56;1.47;;;1.20;;
15063;SDS011;7631;52.088;5.088;2023-04-24T04:56:21;1.03;;;0.93;;
15063;SDS011;7631;52.088;5.088;2023-04-24T04:58:47;1.37;;;1.27;;
15063;SDS011;7631;52.088;5.088;2023-04-24T05:01:12;1.27;;;1.10;;
15063;SDS011;7631;52.088;5.088;2023-04-24T05:03:37;1.23;;;1.13;;
15063;SDS011;7631;52.088;5.088;2023-04-24T05:06:03;1.33;;;0.90;;
15063;SDS011;7631;52.088;5.088;2023-04-24T05:08:28;1.03;;;0.93;;
15063;SDS011;7631;52.088;5.088;2023-04-24T05:10:53;1.70;;;1.30;;
15063;SDS011;7631;52.088;5.088;2023-04-24T05:13:19;1.30;;;1.17;;
15063;SDS011;7631;52.088;5.088;2023-04-24T05:15:45;1.43;;;1.13;;
15063;SDS011;7631;52.088;5.088;2023-04-24T05:18:10;1.20;;;1.00;;
15063;SDS011;7631;52.088;5.088;2023-04-24T05:20:35;1.83;;;1.13;;
15063;SDS011;7631;52.088;5.088;2023-04-24T05:23:01;1.03;;;0.80;;
15063;SDS011;7631;52.088;5.088;2023-04-24T05:25:26;1.87;;;1.00;;
15063;SDS011;7631;52.088;5.088;2023-04-24T05:27:51;1.10;;;1.00;;
15063;SDS011;7631;52.088;5.088;2023-04-24T05:30:18;1.10;;;1.00;;
15063;SDS011;7631;52.088;5.088;2023-04-24T05:32:43;1.07;;;0.83;;
15063;SDS011;7631;52.088;5.088;2023-04-24T05:35:08;0.80;;;0.80;;
15063;SDS011;7631;52.088;5.088;2023-04-24T05:37:33;0.80;;;0.70;;
15063;SDS011;7631;52.088;5.088;2023-04-24T05:39:59;0.83;;;0.70;;
15063;SDS011;7631;52.088;5.088;2023-04-24T05:42:24;0.60;;;0.60;;
15063;SDS011;7631;52.088;5.088;2023-04-24T05:44:50;1.03;;;0.63;;
15063;SDS011;7631;52.088;5.088;2023-04-24T05:47:15;1.47;;;0.80;;
15063;SDS011;7631;52.088;5.088;2023-04-24T05:49:40;0.93;;;0.80;;
15063;SDS011;7631;52.088;5.088;2023-04-24T05:52:06;0.93;;;0.80;;
15063;SDS011;7631;52.088;5.088;2023-04-24T05:54:33;1.37;;;0.70;;
15063;SDS011;7631;52.088;5.088;2023-04-24T05:56:58;0.93;;;0.60;;
15063;SDS011;7631;52.088;5.088;2023-04-24T05:59:24;1.00;;;0.80;;
15063;SDS011;7631;52.088;5.088;2023-04-24T06:01:49;0.50;;;0.50;;
15063;SDS011;7631;52.088;5.088;2023-04-24T06:04:14;0.87;;;0.70;;
15063;SDS011;7631;52.088;5.088;2023-04-24T06:06:40;0.80;;;0.70;;
15063;SDS011;7631;52.088;5.088;2023-04-24T06:09:05;0.73;;;0.67;;
15063;SDS011;7631;52.088;5.088;2023-04-24T06:11:30;0.90;;;0.80;;
15063;SDS011;7631;52.088;5.088;2023-04-24T06:13:56;1.57;;;1.00;;
15063;SDS011;7631;52.088;5.088;2023-04-24T06:16:21;2.23;;;1.93;;
15063;SDS011;7631;52.088;5.088;2023-04-24T06:18:46;3.40;;;2.10;;
15063;SDS011;7631;52.088;5.088;2023-04-24T06:21:12;3.43;;;2.30;;
15063;SDS011;7631;52.088;5.088;2023-04-24T06:23:37;3.13;;;2.43;;
15063;SDS011;7631;52.088;5.088;2023-04-24T06:26:03;5.53;;;2.47;;
15063;SDS011;7631;52.088;5.088;2023-04-24T06:28:28;4.00;;;2.90;;
15063;SDS011;7631;52.088;5.088;2023-04-24T06:30:54;4.40;;;3.47;;
15063;SDS011;7631;52.088;5.088;2023-04-24T06:33:19;4.27;;;3.13;;
15063;SDS011;7631;52.088;5.088;2023-04-24T06:35:44;4.47;;;3.40;;
15063;SDS011;7631;52.088;5.088;2023-04-24T06:38:10;4.40;;;3.37;;
15063;SDS011;7631;52.088;5.088;2023-04-24T06:40:35;3.90;;;3.50;;
15063;SDS011;7631;52.088;5.088;2023-04-24T06:43:00;6.40;;;4.10;;
15063;SDS011;7631;52.088;5.088;2023-04-24T06:45:27;4.63;;;4.17;;
15063;SDS011;7631;52.088;5.088;2023-04-24T06:47:53;5.30;;;3.87;;
15063;SDS011;7631;52.088;5.088;2023-04-24T06:50:18;4.97;;;4.00;;
15063;SDS011;7631;52.088;5.088;2023-04-24T06:52:43;5.33;;;3.80;;
15063;SDS011;7631;52.088;5.088;2023-04-24T06:55:09;4.90;;;3.73;;
15063;SDS011;7631;52.088;5.088;2023-04-24T06:57:36;5.13;;;3.63;;
15063;SDS011;7631;52.088;5.088;2023-04-24T07:00:01;5.07;;;4.17;;
15063;SDS011;7631;52.088;5.088;2023-04-24T07:02:28;6.00;;;4.30;;
15063;SDS011;7631;52.088;5.088;2023-04-24T07:04:53;6.00;;;4.30;;
15063;SDS011;7631;52.088;5.088;2023-04-24T07:07:18;4.67;;;3.87;;
15063;SDS011;7631;52.088;5.088;2023-04-24T07:09:44;5.83;;;4.27;;
15063;SDS011;7631;52.088;5.088;2023-04-24T07:12:11;5.87;;;4.10;;
15063;SDS011;7631;52.088;5.088;2023-04-24T07:14:36;6.27;;;4.10;;
15063;SDS011;7631;52.088;5.088;2023-04-24T07:17:03;5.60;;;4.10;;
15063;SDS011;7631;52.088;5.088;2023-04-24T07:19:28;6.70;;;3.93;;
15063;SDS011;7631;52.088;5.088;2023-04-24T07:21:53;6.20;;;4.13;;
15063;SDS011;7631;52.088;5.088;2023-04-24T07:24:20;5.83;;;4.03;;
15063;SDS011;7631;52.088;5.088;2023-04-24T07:26:45;4.87;;;3.57;;
15063;SDS011;7631;52.088;5.088;2023-04-24T07:29:11;7.73;;;4.30;;
15063;SDS011;7631;52.088;5.088;2023-04-24T07:31:37;7.30;;;4.50;;
15063;SDS011;7631;52.088;5.088;2023-04-24T07:34:02;6.57;;;4.33;;
15063;SDS011;7631;52.088;5.088;2023-04-24T07:36:28;7.50;;;4.47;;
15063;SDS011;7631;52.088;5.088;2023-04-24T07:38:53;5.23;;;4.30;;
15063;SDS011;7631;52.088;5.088;2023-04-24T07:41:19;6.90;;;4.23;;
15063;SDS011;7631;52.088;5.088;2023-04-24T07:43:46;7.20;;;4.30;;
15063;SDS011;7631;52.088;5.088;2023-04-24T07:46:11;10.23;;;4.40;;
15063;SDS011;7631;52.088;5.088;2023-04-24T07:48:36;5.83;;;3.90;;
15063;SDS011;7631;52.088;5.088;2023-04-24T07:51:01;6.83;;;4.27;;
15063;SDS011;7631;52.088;5.088;2023-04-24T07:53:27;6.33;;;3.97;;
15063;SDS011;7631;52.088;5.088;2023-04-24T07:55:53;6.33;;;3.60;;
15063;SDS011;7631;52.088;5.088;2023-04-24T07:58:19;7.53;;;4.13;;
15063;SDS011;7631;52.088;5.088;2023-04-24T08:00:44;7.83;;;4.03;;
15063;SDS011;7631;52.088;5.088;2023-04-24T08:03:10;7.10;;;3.43;;
15063;SDS011;7631;52.088;5.088;2023-04-24T08:05:35;6.23;;;3.40;;
15063;SDS011;7631;52.088;5.088;2023-04-24T08:08:00;10.73;;;3.80;;
15063;SDS011;7631;52.088;5.088;2023-04-24T08:10:25;7.27;;;3.50;;
15063;SDS011;7631;52.088;5.088;2023-04-24T08:12:51;6.37;;;3.53;;
15063;SDS011;7631;52.088;5.088;2023-04-24T08:15:16;6.90;;;3.30;;
15063;SDS011;7631;52.088;5.088;2023-04-24T08:17:42;8.43;;;3.83;;
15063;SDS011;7631;52.088;5.088;2023-04-24T08:20:08;7.17;;;3.20;;
15063;SDS011;7631;52.088;5.088;2023-04-24T08:22:38;7.87;;;3.50;;
15063;SDS011;7631;52.088;5.088;2023-04-24T08:25:04;6.97;;;3.20;;
15063;SDS011;7631;52.088;5.088;2023-04-24T08:27:29;7.83;;;3.30;;
15063;SDS011;7631;52.088;5.088;2023-04-24T08:29:55;8.47;;;2.60;;
15063;SDS011;7631;52.088;5.088;2023-04-24T08:32:21;6.53;;;3.00;;
15063;SDS011;7631;52.088;5.088;2023-04-24T08:34:46;8.20;;;2.70;;
15063;SDS011;7631;52.088;5.088;2023-04-24T08:37:11;6.40;;;3.00;;
15063;SDS011;7631;52.088;5.088;2023-04-24T08:39:37;5.47;;;2.63;;
15063;SDS011;7631;52.088;5.088;2023-04-24T08:42:02;7.13;;;2.67;;
15063;SDS011;7631;52.088;5.088;2023-04-24T08:44:32;6.23;;;2.80;;
15063;SDS011;7631;52.088;5.088;2023-04-24T08:46:58;5.43;;;2.57;;
15063;SDS011;7631;52.088;5.088;2023-04-24T08:49:23;6.30;;;2.97;;
15063;SDS011;7631;52.088;5.088;2023-04-24T08:51:49;7.20;;;2.87;;
15063;SDS011;7631;52.088;5.088;2023-04-24T08:54:14;7.17;;;2.43;;
15063;SDS011;7631;52.088;5.088;2023-04-24T08:56:40;6.83;;;2.80;;
15063;SDS011;7631;52.088;5.088;2023-04-24T08:59:07;7.73;;;2.60;;
15063;SDS011;7631;52.088;5.088;2023-04-24T09:01:33;6.67;;;2.50;;
15063;SDS011;7631;52.088;5.088;2023-04-24T09:04:03;5.47;;;2.53;;
15063;SDS011;7631;52.088;5.088;2023-04-24T09:06:28;6.37;;;2.30;;
15063;SDS011;7631;52.088;5.088;2023-04-24T09:08:55;5.17;;;2.07;;
15063;SDS011;7631;52.088;5.088;2023-04-24T09:11:21;8.10;;;2.43;;
15063;SDS011;7631;52.088;5.088;2023-04-24T09:13:49;6.77;;;2.40;;
15063;SDS011;7631;52.088;5.088;2023-04-24T09:16:14;5.13;;;1.90;;
15063;SDS011;7631;52.088;5.088;2023-04-24T09:18:42;7.20;;;2.63;;
15063;SDS011;7631;52.088;5.088;2023-04-24T09:21:08;5.77;;;2.17;;
15063;SDS011;7631;52.088;5.088;2023-04-24T09:23:33;6.33;;;2.30;;
15063;SDS011;7631;52.088;5.088;2023-04-24T09:26:01;5.33;;;1.90;;
15063;SDS011;7631;52.088;5.088;2023-04-24T09:28:30;4.80;;;2.03;;
15063;SDS011;7631;52.088;5.088;2023-04-24T09:31:14;6.63;;;2.30;;
15063;SDS011;7631;52.088;5.088;2023-04-24T09:34:04;5.03;;;2.20;;
15063;SDS011;7631;52.088;5.088;2023-04-24T09:36:31;5.97;;;1.90;;
15063;SDS011;7631;52.088;5.088;2023-04-24T09:38:58;4.17;;;1.80;;
15063;SDS011;7631;52.088;5.088;2023-04-24T09:41:24;6.53;;;2.37;;
15063;SDS011;7631;52.088;5.088;2023-04-24T09:43:50;4.77;;;2.10;;
15063;SDS011;7631;52.088;5.088;2023-04-24T09:46:18;5.00;;;2.23;;
15063;SDS011;7631;52.088;5.088;2023-04-24T09:48:44;5.23;;;1.83;;
15063;SDS011;7631;52.088;5.088;2023-04-24T09:51:10;6.07;;;1.90;;
15063;SDS011;7631;52.088;5.088;2023-04-24T09:53:36;5.20;;;1.80;;
15063;SDS011;7631;52.088;5.088;2023-04-24T09:56:02;4.63;;;2.00;;
15063;SDS011;7631;52.088;5.088;2023-04-24T09:58:28;5.13;;;2.27;;
15063;SDS011;7631;52.088;5.088;2023-04-24T10:00:54;4.20;;;1.87;;
15063;SDS011;7631;52.088;5.088;2023-04-24T10:03:20;4.83;;;1.70;;
15063;SDS011;7631;52.088;5.088;2023-04-24T10:05:46;4.40;;;2.07;;
15063;SDS011;7631;52.088;5.088;2023-04-24T10:08:12;5.37;;;2.00;;
15063;SDS011;7631;52.088;5.088;2023-04-24T10:10:41;4.03;;;1.77;;
15063;SDS011;7631;52.088;5.088;2023-04-24T10:13:07;4.77;;;1.70;;
15063;SDS011;7631;52.088;5.088;2023-04-24T10:15:32;3.73;;;1.50;;
15063;SDS011;7631;52.088;5.088;2023-04-24T10:17:58;3.63;;;1.80;;
15063;SDS011;7631;52.088;5.088;2023-04-24T10:20:24;4.73;;;1.87;;
15063;SDS011;7631;52.088;5.088;2023-04-24T10:22:51;3.77;;;1.77;;
15063;SDS011;7631;52.088;5.088;2023-04-24T10:25:16;3.50;;;1.70;;
15063;SDS011;7631;52.088;5.088;2023-04-24T10:27:43;3.57;;;1.20;;
15063;SDS011;7631;52.088;5.088;2023-04-24T10:30:10;4.77;;;1.50;;
15063;SDS011;7631;52.088;5.088;2023-04-24T10:32:36;3.20;;;1.43;;
15063;SDS011;7631;52.088;5.088;2023-04-24T10:35:01;2.00;;;1.40;;
15063;SDS011;7631;52.088;5.088;2023-04-24T10:37:27;3.00;;;1.40;;
15063;SDS011;7631;52.088;5.088;2023-04-24T10:39:52;3.87;;;1.37;;
15063;SDS011;7631;52.088;5.088;2023-04-24T10:42:19;3.27;;;1.40;;
15063;SDS011;7631;52.088;5.088;2023-04-24T10:44:46;2.77;;;1.40;;
15063;SDS011;7631;52.088;5.088;2023-04-24T10:47:12;3.60;;;1.40;;
15063;SDS011;7631;52.088;5.088;2023-04-24T10:49:38;2.10;;;1.13;;
15063;SDS011;7631;52.088;5.088;2023-04-24T10:52:03;3.23;;;1.07;;
15063;SDS011;7631;52.088;5.088;2023-04-24T10:55:03;4.00;;;1.30;;
15063;SDS011;7631;52.088;5.088;2023-04-24T10:57:26;1.97;;;0.93;;
15063;SDS011;7631;52.088;5.088;2023-04-24T11:02:38;1.60;;;1.17;;
15063;SDS011;7631;52.088;5.088;2023-04-24T11:05:03;3.03;;;1.30;;
15063;SDS011;7631;52.088;5.088;2023-04-24T11:07:29;1.93;;;0.90;;
15063;SDS011;7631;52.088;5.088;2023-04-24T11:10:00;3.13;;;0.90;;
15063;SDS011;7631;52.088;5.088;2023-04-24T11:12:26;4.73;;;1.10;;
15063;SDS011;7631;52.088;5.088;2023-04-24T11:17:31;3.00;;;1.00;;
15063;SDS011;7631;52.088;5.088;2023-04-24T11:22:29;1.80;;;0.80;;
15063;SDS011;7631;52.088;5.088;2023-04-24T11:24:56;3.87;;;1.00;;
15063;SDS011;7631;52.088;5.088;2023-04-24T11:27:24;2.73;;;1.00;;
15063;SDS011;7631;52.088;5.088;2023-04-24T11:35:01;2.97;;;0.97;;
15063;SDS011;7631;52.088;5.088;2023-04-24T11:37:28;1.87;;;0.90;;
15063;SDS011;7631;52.088;5.088;2023-04-24T11:39:53;1.60;;;0.70;;
15063;SDS011;7631;52.088;5.088;2023-04-24T11:42:19;3.50;;;1.00;;
15063;SDS011;7631;52.088;5.088;2023-04-24T11:44:45;2.63;;;0.80;;
15063;SDS011;7631;52.088;5.088;2023-04-24T11:47:12;2.20;;;0.97;;
15063;SDS011;7631;52.088;5.088;2023-04-24T11:49:37;2.90;;;0.90;;
15063;SDS011;7631;52.088;5.088;2023-04-24T11:52:03;2.87;;;0.67;;
15063;SDS011;7631;52.088;5.088;2023-04-24T11:54:28;2.00;;;0.77;;
15063;SDS011;7631;52.088;5.088;2023-04-24T11:56:55;2.30;;;0.80;;
15063;SDS011;7631;52.088;5.088;2023-04-24T11:59:21;1.90;;;0.80;;
15063;SDS011;7631;52.088;5.088;2023-04-24T12:01:46;2.83;;;0.90;;
15063;SDS011;7631;52.088;5.088;2023-04-24T12:04:12;1.67;;;0.80;;
15063;SDS011;7631;52.088;5.088;2023-04-24T12:06:37;4.03;;;1.00;;
15063;SDS011;7631;52.088;5.088;2023-04-24T12:09:03;2.13;;;0.90;;
15063;SDS011;7631;52.088;5.088;2023-04-24T12:11:28;4.27;;;1.10;;
15063;SDS011;7631;52.088;5.088;2023-04-24T12:13:53;2.90;;;0.90;;
15063;SDS011;7631;52.088;5.088;2023-04-24T12:16:18;1.53;;;0.73;;
15063;SDS011;7631;52.088;5.088;2023-04-24T12:18:44;3.23;;;1.07;;
15063;SDS011;7631;52.088;5.088;2023-04-24T12:23:42;3.03;;;0.93;;
15063;SDS011;7631;52.088;5.088;2023-04-24T12:26:08;3.13;;;0.93;;
15063;SDS011;7631;52.088;5.088;2023-04-24T12:28:34;4.33;;;1.13;;
15063;SDS011;7631;52.088;5.088;2023-04-24T12:30:59;4.40;;;1.00;;
15063;SDS011;7631;52.088;5.088;2023-04-24T12:33:25;3.53;;;1.37;;
15063;SDS011;7631;52.088;5.088;2023-04-24T12:35:53;3.87;;;1.37;;
15063;SDS011;7631;52.088;5.088;2023-04-24T12:38:23;3.53;;;1.20;;
15063;SDS011;7631;52.088;5.088;2023-04-24T12:43:31;3.27;;;1.20;;
15063;SDS011;7631;52.088;5.088;2023-04-24T12:45:57;4.07;;;1.00;;
15063;SDS011;7631;52.088;5.088;2023-04-24T12:48:22;3.00;;;1.00;;
15063;SDS011;7631;52.088;5.088;2023-04-24T12:50:48;4.67;;;1.30;;
15063;SDS011;7631;52.088;5.088;2023-04-24T12:53:13;3.90;;;1.47;;
15063;SDS011;7631;52.088;5.088;2023-04-24T12:55:39;4.60;;;1.43;;
15063;SDS011;7631;52.088;5.088;2023-04-24T12:58:05;3.50;;;1.23;;
15063;SDS011;7631;52.088;5.088;2023-04-24T13:00:30;5.23;;;1.37;;
15063;SDS011;7631;52.088;5.088;2023-04-24T13:02:55;4.97;;;1.67;;
15063;SDS011;7631;52.088;5.088;2023-04-24T13:05:21;3.03;;;1.40;;
15063;SDS011;7631;52.088;5.088;2023-04-24T13:07:46;4.17;;;1.40;;
15063;SDS011;7631;52.088;5.088;2023-04-24T13:10:11;3.47;;;1.20;;
15063;SDS011;7631;52.088;5.088;2023-04-24T13:12:38;4.77;;;1.67;;
15063;SDS011;7631;52.088;5.088;2023-04-24T13:15:03;4.50;;;1.47;;
15063;SDS011;7631;52.088;5.088;2023-04-24T13:17:29;4.60;;;1.70;;
15063;SDS011;7631;52.088;5.088;2023-04-24T13:19:54;4.60;;;1.87;;
15063;SDS011;7631;52.088;5.088;2023-04-24T13:22:19;4.20;;;1.73;;
15063;SDS011;7631;52.088;5.088;2023-04-24T13:24:45;6.43;;;2.07;;
15063;SDS011;7631;52.088;5.088;2023-04-24T13:27:10;6.07;;;1.93;;
15063;SDS011;7631;52.088;5.088;2023-04-24T13:29:36;5.77;;;1.60;;
15063;SDS011;7631;52.088;5.088;2023-04-24T13:32:01;5.27;;;2.00;;
15063;SDS011;7631;52.088;5.088;2023-04-24T13:34:27;4.77;;;1.57;;
15063;SDS011;7631;52.088;5.088;2023-04-24T13:36:53;4.70;;;1.70;;
15063;SDS011;7631;52.088;5.088;2023-04-24T13:39:18;5.13;;;2.23;;
15063;SDS011;7631;52.088;5.088;2023-04-24T13:41:45;3.43;;;1.63;;
15063;SDS011;7631;52.088;5.088;2023-04-24T13:44:13;4.57;;;2.13;;
15063;SDS011;7631;52.088;5.088;2023-04-24T13:46:38;7.47;;;2.47;;
15063;SDS011;7631;52.088;5.088;2023-04-24T13:49:03;7.83;;;2.67;;
15063;SDS011;7631;52.088;5.088;2023-04-24T13:51:28;7.53;;;2.60;;
15063;SDS011;7631;52.088;5.088;2023-04-24T13:53:54;6.97;;;2.47;;
15063;SDS011;7631;52.088;5.088;2023-04-24T13:56:20;5.97;;;2.50;;
15063;SDS011;7631;52.088;5.088;2023-04-24T13:58:45;7.07;;;2.57;;
15063;SDS011;7631;52.088;5.088;2023-04-24T14:01:11;5.17;;;2.20;;
15063;SDS011;7631;52.088;5.088;2023-04-24T14:03:39;5.03;;;2.13;;
15063;SDS011;7631;52.088;5.088;2023-04-24T14:06:05;4.80;;;1.80;;
15063;SDS011;7631;52.088;5.088;2023-04-24T14:08:31;5.47;;;2.20;;
15063;SDS011;7631;52.088;5.088;2023-04-24T14:10:56;6.70;;;2.50;;
15063;SDS011;7631;52.088;5.088;2023-04-24T14:13:22;4.87;;;2.20;;
15063;SDS011;7631;52.088;5.088;2023-04-24T14:15:48;8.17;;;3.00;;
15063;SDS011;7631;52.088;5.088;2023-04-24T14:18:13;4.97;;;2.40;;
15063;SDS011;7631;52.088;5.088;2023-04-24T14:20:39;5.80;;;2.83;;
15063;SDS011;7631;52.088;5.088;2023-04-24T14:23:04;5.53;;;2.43;;
15063;SDS011;7631;52.088;5.088;2023-04-24T14:25:29;5.73;;;2.83;;
15063;SDS011;7631;52.088;5.088;2023-04-24T14:27:55;6.37;;;2.33;;
15063;SDS011;7631;52.088;5.088;2023-04-24T14:30:20;5.57;;;2.43;;
15063;SDS011;7631;52.088;5.088;2023-04-24T14:32:45;7.03;;;2.80;;
15063;SDS011;7631;52.088;5.088;2023-04-24T14:35:11;7.27;;;2.70;;
15063;SDS011;7631;52.088;5.088;2023-04-24T14:37:36;5.97;;;2.50;;
15063;SDS011;7631;52.088;5.088;2023-04-24T14:40:02;6.33;;;2.70;;
15063;SDS011;7631;52.088;5.088;2023-04-24T14:42:29;6.20;;;2.80;;
15063;SDS011;7631;52.088;5.088;2023-04-24T14:44:54;6.03;;;2.63;;
15063;SDS011;7631;52.088;5.088;2023-04-24T14:47:20;5.63;;;2.40;;
15063;SDS011;7631;52.088;5.088;2023-04-24T14:49:46;5.87;;;2.73;;
15063;SDS011;7631;52.088;5.088;2023-04-24T14:52:12;4.60;;;2.63;;
15063;SDS011;7631;52.088;5.088;2023-04-24T14:54:37;7.30;;;2.80;;
15063;SDS011;7631;52.088;5.088;2023-04-24T14:57:02;6.83;;;3.10;;
15063;SDS011;7631;52.088;5.088;2023-04-24T14:59:28;7.57;;;2.83;;
15063;SDS011;7631;52.088;5.088;2023-04-24T15:01:53;6.23;;;2.70;;
15063;SDS011;7631;52.088;5.088;2023-04-24T15:04:23;6.53;;;2.70;;
15063;SDS011;7631;52.088;5.088;2023-04-24T15:06:50;4.40;;;2.80;;
15063;SDS011;7631;52.088;5.088;2023-04-24T15:09:15;8.30;;;2.80;;